Potsdam, NY

44° 42' 44"N, 74° 57' 12"W, Elevation 460 ft.
Eastern Time

Hourly observations for the last 72 hours

Date Time Temperature (°F) Humi-
dity

(%)
Wind
(mph)
Pressure Rain (in)
Air Dew 6 Hour 1 Hr 3 Hr 6 Hr Day
Alt
(in)
Sea
Level

(mb)
Max Min
22 06:00 51.7 45.1 78 NW 3 G 14 30.10 1019.4 0.00
22 05:00 52.3 45.7 78 WNW 3 G 12 30.05 1017.6 0.00
22 04:00 56.0 47.5 73 NW 3 G 15 29.99 1015.6 0.00
22 03:00 60.8 52.8 75 W 0 G 12 29.91 1012.8 0.00
22 02:00 62.6 55.3 75.1 62.4 77 W 5 G 15 29.85 1010.8 0.41 0.00
22 01:00 63.9 56.2 76 WNW 8 G 22 29.80 1009.2 0.00
22 00:00 67.2 58.6 74 WNW 4 G 29 29.76 1007.7 1.61
21 23:00 70.5 68.4 93 W 5 G 18 29.71 1006.0 0.41 1.61
21 22:00 70.6 69.4 96 SSW 4 G 14 29.68 1005.1 1.61
21 21:00 69.8 68.6 96 WSW 7 G 18 29.66 1004.5 0.41 1.61
21 20:00 75.1 68.5 80.6 73.5 80 S 7 G 26 29.56 1001.0 0.01 0.02 1.20
21 19:00 74.9 69.0 82 S 10 G 22 29.58 1001.7 0.01 1.20
21 18:00 77.5 69.3 76 S 9 G 23 29.58 1001.6 1.19
21 17:00 79.2 70.2 74 S 8 G 22 29.60 1002.6 0.01 1.19
21 16:00 80.5 71.1 73 S 8 G 26 29.66 1004.3 1.19
21 15:00 79.5 70.9 75 SSW 4 G 24 29.72 1006.3 0.01 1.19
21 14:00 76.4 70.1 76.6 64.9 81 S 7 G 25 29.76 1007.8 0.52 1.18
21 13:00 74.5 69.4 84 S 9 G 21 29.80 1009.1 1.18
21 12:00 73.9 69.8 87 SSW 6 G 23 29.83 1010.1 1.18
21 11:00 69.1 67.3 94 SSW 6 G 17 29.86 1011.2 0.52 1.18
21 10:00 66.5 65.9 98 S 4 G 16 29.88 1012.0 0.03 1.18
21 09:00 65.5 64.9 98 S 3 G 12 29.92 1013.3 0.49 1.15
21 08:00 64.9 64.0 64.9 55.5 97 S 10 G 20 29.93 1013.6 0.16 0.57 0.66 0.66
21 07:00 63.9 63.0 97 SSE 9 G 15 29.96 1014.5 0.04 0.50
21 06:00 63.0 62.4 98 S 10 G 18 29.98 1015.4 0.37 0.46
21 05:00 57.7 56.9 97 ESE 0 G 1 30.05 1017.6 0.09 0.09 0.09
21 04:00 56.4 55.3 96 Calm 30.06 1017.8 0.00
21 03:00 55.8 54.7 96 Calm 30.10 1019.3 0.00
21 02:00 55.7 54.6 56.5 55.3 96 Calm 30.13 1020.3 0.00
21 01:00 55.4 54.3 96 ESE 0 G 2 30.16 1021.3 0.00
21 00:00 55.3 53.9 95 ENE 0 G 2 30.19 1022.5 0.00
20 23:00 55.5 53.8 94 E 0 G 5 30.20 1022.9 0.00
20 22:00 55.7 53.7 93 ENE 1 G 6 30.21 1023.1 0.00
20 21:00 55.9 53.9 93 ENE 0 G 5 30.22 1023.2 0.00
20 20:00 56.5 53.9 63.1 56.5 91 E 0 G 3 30.22 1023.3 0.00
20 19:00 57.8 54.6 89 E 0 G 4 30.22 1023.4 0.00
20 18:00 59.5 55.0 85 E 0 G 3 30.23 1023.6 0.00
20 17:00 60.6 55.4 83 ENE 1 G 5 30.22 1023.5 0.00
20 16:00 62.9 56.6 80 NE 2 G 8 30.22 1023.5 0.00
20 15:00 62.7 56.4 80 NE 1 G 6 30.24 1024.1 0.00
20 14:00 61.7 56.2 61.7 47.1 82 NE 1 G 7 30.24 1024.1 0.00
20 13:00 59.0 54.5 85 NE 0 G 5 30.24 1024.2 0.00
20 12:00 60.2 55.0 83 NE 0 G 7 30.24 1023.9 0.00
20 11:00 59.0 55.1 87 ENE 1 G 4 30.24 1024.2 0.00
20 10:00 52.7 52.2 98 E 1 G 4 30.25 1024.6 0.00
20 09:00 49.7 49.2 98 ENE 0 G 2 30.27 1025.2 0.00
20 08:00 47.1 46.3 47.1 42.2 97 SE 1 G 5 30.23 1023.8 0.00
20 07:00 46.1 45.3 97 Calm 30.25 1024.4 0.00
20 06:00 46.0 45.2 97 NE 0 G 1 30.23 1023.6 0.00
20 05:00 43.8 43.0 97 E 0 G 2 30.17 1021.7 0.00
20 04:00 42.7 41.9 97 Calm 30.16 1021.3 0.00
20 03:00 44.7 43.9 97 Calm 30.17 1021.6 0.00
20 02:00 45.0 43.9 54.9 45.0 96 Calm 30.16 1021.3 0.00
20 01:00 45.9 44.8 96 Calm 30.17 1021.6 0.00
20 00:00 46.5 45.4 96 NE 0 G 1 30.15 1021.2 0.00
19 23:00 48.2 46.8 95 Calm 30.17 1021.5 0.00
19 22:00 49.4 48.0 95 Calm 30.15 1021.0 0.00
19 21:00 51.3 49.3 93 Calm 30.15 1020.9 0.00
19 20:00 54.9 51.7 65.3 54.9 89 Calm 30.13 1020.4 0.00
19 19:00 59.2 54.0 83 NE 0 G 1 30.11 1019.8 0.00
19 18:00 61.3 54.4 78 ENE 0 G 1 30.09 1019.1 0.00
19 17:00 62.2 54.5 76 ENE 0 G 6 30.09 1018.9 0.00
19 16:00 62.8 55.5 77 NNE 1 G 4 30.08 1018.8 0.00
19 15:00 62.7 54.3 74 NNE 0 G 4 30.08 1018.8 0.00
19 14:00 65.0 56.1 65.0 54.3 73 E 1 G 8 30.05 1017.6 0.00
19 13:00 63.3 55.2 75 ENE 1 G 6 30.07 1018.2 0.00
19 12:00 61.6 54.7 78 NNE 0 G 5 30.06 1017.9 0.00
19 11:00 59.0 53.5 82 NNE 0 G 7 30.06 1018.0 0.00
19 10:00 57.0 52.5 85 NE 0 G 5 30.05 1017.6 0.00
19 09:00 55.0 51.5 88 E 1 G 5 30.03 1016.9 0.00
19 08:00 54.3 52.0 56.9 52.5 92 ENE 1 G 4 30.01 1016.3 0.00
19 07:00 53.5 51.8 94 NE 0 G 3 29.99 1015.5 0.00

Data generated by WxSolution Version 1.9.1.5, Build 2018.05.20.